Terminal Aerodrome Forecast
Issued by NWS Tuscon, AZ

Current Version | Previous Version | Text Only | Print | Product List | Glossary On
Versions: 1 2 3 4 5 6 7 8 9 10 11 12
000
FTUS45 KTWC 231138
TAFTUS
TAF
KTUS 231138Z 2312/2412 25012G20KT P6SM VCSH SCT050 BKN060
     FM231600 27012KT P6SM SCT060 SCT100
     FM232000 29018G28KT P6SM SCT100
     FM240200 30008KT P6SM SKC
     FM240700 21005KT P6SM SKC=

USA.gov is the U.S. government's official web portal to all federal, state and local government web resources and services.